Aircraft
UPR1004 PR-BIA B787-10
SBKP
Viracopos International Airport
SAEZ
Minister Pistarini International Airport
Pilot:: Jair
Aircraft:: 787-10
Alternate: SUMU
Network: ivao
FLIGHT DETAILS
Distance: 928nm Duration 02h 52m
Cruise Speed: Flight Level: 38000
Validation: Validated Type Charter
Flight Fuel
ZFW: 156966
Block Fuel/Initial FOB: 37287
Flight Fuel: 0
Cargo
Passengers: 320
Cargo: 120300
ROUTE
ROUTE: sbkp dct saez
REMARKS:
DATE
Date: 26-09-01
Departure Time: 1944
Cargo: 120300
FLIGHT DETAILS
Crashed: No
Validator Comments: Validado por Rafael
Flight Rating: 95
LANDING ANALYSIS
Landing wind: 50º/7 kt
Landing heading: 298º
Landing VS:: -268 ft/min
Landing IAS:: 154 kt
Landing Force G: 1.1 G
Landing Bank: 2
Landing Pitch: -2
Landing Flaps: 100
Navigation Lights: ON
Landing Lights: ON
Beacon Lights: ON
Strobe Lights: ON
viserfly

ALTITUDE CHART

viserfly

MAIN EVENTS

DATE EVENT IAS ALTITUDE
2026-09-01 19:43:18 FLYacars version 1.3.6 11 2162
2026-09-01 19:43:19 Aircraft boarding in progress 11 2162
2026-09-01 19:43:19 FLAPS 44% 11 2162
2026-09-01 19:43:19 Navigation Lights ON 11 2162
2026-09-01 19:43:19 Beacon Lights ON 11 2162
2026-09-01 19:43:19 Strobe Lights ON 11 2162
2026-09-01 19:43:19 Landing Lights ON 11 2162
2026-09-01 19:43:19 Taxi Lights ON 11 2162
2026-09-01 19:43:19 Starting Engine 2 11 2162
2026-09-01 19:43:19 Starting Engine 1 11 2162
2026-09-01 19:44:15 Aircraft taxiing to runway 15 2162
2026-09-01 19:44:50 Detected Take-off roll, HDG 323, IAS 176kt, GS 177kt, G-force 1.0g, Pitch -2.7deg, Bank 0.1deg, Wind 301/10kt, Temp 19°C 176 2162
2026-09-01 19:44:50 Airborne 176 2162
2026-09-01 19:44:54 Stall flag 187 2241
2026-09-01 19:44:55 Gear UP, IAS 186kt, GS 186kt, ALT 125ft AGL 186 2272
2026-09-01 19:45:29 FLAPS 33% 192kt, ALT 4259ft 192 4259
2026-09-01 19:45:34 FLAPS 22% 206kt, ALT 4284ft 206 4284
2026-09-01 19:45:37 FLAPS 11% 212kt, ALT 4374ft 212 4374
2026-09-01 19:45:44 FLAPS 0% 225kt, ALT 4638ft 225 4638
2026-09-01 19:48:52 Landing Lights OFF 294 10158
2026-09-01 19:48:54 Taxi Lights OFF 294 10153
2026-09-01 20:00:26 Aircraft on Top Of Climb at 39027ft, IAS 268kt, GS 426kt, HDG 236deg, TAT -47deg, WIND 259/101kt 268 39027
2026-09-01 21:43:28 Aircraft on Top Of Descent at 37498ft, IAS 270kt, GS 364kt, HDG 238deg, TAT -47deg, WIND 231/127kt 270 37498
2026-09-01 22:12:17 Landing Lights ON 231 9943
2026-09-01 22:12:18 Taxi Lights ON 231 9926
2026-09-01 22:18:47 FLAPS 11% 226kt, ALT 4068ft 226 4068
2026-09-01 22:18:48 FLAPS 22% 226kt, ALT 4073ft 226 4073
2026-09-01 22:18:49 FLAPS 33% 224kt, ALT 4086ft 224 4086
2026-09-01 22:18:57 FLAPS 44% 213kt, ALT 4101ft 213 4101
2026-09-01 22:18:59 FLAPS 55% 209kt, ALT 4100ft 209 4100
2026-09-01 22:19:04 FLAPS 66% 201kt, ALT 4100ft 201 4100
2026-09-01 22:19:08 Gear DOWN, IAS 194kt, GS 211kt, ALT 4029ft AGL 194 4092
2026-09-01 22:21:24 FLAPS 77% 166kt, ALT 4083ft 166 4083
2026-09-01 22:21:25 FLAPS 100% 166kt, ALT 4083ft 166 4083
2026-09-01 22:37:13 Landed at destination with a landing rate of -268fpm, G-force 1.1g, Pitch -1.6deg, Bank 2.1deg, HDG 298deg, IAS 154kt, GS 158kt, Wind 050/07kt, Temp 15°C 154 88
2026-09-01 22:37:13 Incorrect altimeter settings on landing 154 88
2026-09-01 22:37:38 FLAPS 88% 42 87
2026-09-01 22:37:38 FLAPS 55% 40 87
2026-09-01 22:37:38 FLAPS 22% 40 87
2026-09-01 22:37:38 FLAPS 0% 40 87
2026-09-01 22:37:53 Aircraft taxiing to apron 20 85
2026-09-01 22:40:42 Taxi Lights OFF 4 81
2026-09-01 22:40:45 Landing Lights OFF 4 81
2026-09-01 22:40:50 Aircraft at gate/stand, ground services are moving into position, disembarkation has begun. Remaining FOB 37287kg FLYacars v1.3.6 4 81
viserfly

ACARS DATA

DATE IAS GS ALTITUDE FUEL CONSUMED OAT FLIGHT STATUS
2026-09-01 19:43:48 8 0 2162 0 19 BOARDING
2026-09-01 19:44:18 25 16 2162 0 19 TAXI TO RUNWAY
2026-09-01 19:44:48 169 169 2161 0 19 TAKEOFF
2026-09-01 19:45:18 157 150 4342 0 15 APPROACH
2026-09-01 19:45:48 231 227 4854 0 14 CLIMB
2026-09-01 19:46:18 250 256 6758 0 11 CLIMB
2026-09-01 19:46:48 261 270 8137 0 9 ENROUTE
2026-09-01 19:47:18 253 259 8124 0 9 ENROUTE
2026-09-01 19:47:48 251 257 8245 0 9 CLIMB
2026-09-01 19:48:18 261 270 9835 0 7 CLIMB
2026-09-01 19:48:48 295 306 10156 0 6 ENROUTE
2026-09-01 19:49:18 295 307 10262 0 6 CLIMB
2026-09-01 19:49:48 296 312 12177 0 1 CLIMB
2026-09-01 19:50:18 296 317 14507 0 -3 CLIMB
2026-09-01 19:50:48 296 325 16615 0 -5 CLIMB
2026-09-01 19:51:18 296 331 18570 0 -8 CLIMB
2026-09-01 19:51:48 294 341 20290 0 -11 CLIMB
2026-09-01 19:52:18 293 358 21807 0 -13 CLIMB
2026-09-01 19:52:48 293 373 23155 0 -16 CLIMB
2026-09-01 19:53:18 293 413 24437 0 -18 CLIMB
2026-09-01 19:53:48 297 443 25731 0 -20 CLIMB
2026-09-01 19:54:18 299 439 27060 0 -22 CLIMB
2026-09-01 19:54:48 299 432 28329 0 -24 CLIMB
2026-09-01 19:55:18 299 441 29496 0 -26 CLIMB
2026-09-01 19:55:48 298 441 30559 0 -27 CLIMB
2026-09-01 19:56:18 299 444 31558 0 -29 CLIMB
2026-09-01 19:56:48 300 445 32509 0 -32 CLIMB
2026-09-01 19:57:18 299 447 33415 0 -34 CLIMB
2026-09-01 19:57:48 300 448 34233 0 -35 CLIMB
2026-09-01 19:58:18 293 440 35356 0 -38 CLIMB
2026-09-01 19:58:48 284 433 36435 0 -41 CLIMB
2026-09-01 19:59:18 278 430 37348 0 -43 CLIMB
2026-09-01 19:59:48 273 428 38202 0 -45 CLIMB
2026-09-01 20:00:18 269 426 38959 0 -46 CLIMB
2026-09-01 20:00:48 267 421 39012 0 -47 ENROUTE
2026-09-01 20:01:00 264 416 39019 0 -47 ENROUTE
2026-09-01 20:01:30 263 416 39015 0 -47 ENROUTE
2026-09-01 20:02:00 265 418 39016 0 -47 ENROUTE
2026-09-01 20:02:30 266 419 38966 0 -46 ENROUTE
2026-09-01 20:03:00 263 416 38963 0 -46 ENROUTE
2026-09-01 20:03:30 265 418 38963 0 -46 ENROUTE
2026-09-01 20:04:00 265 418 38966 0 -46 ENROUTE
2026-09-01 20:04:30 264 418 38954 0 -46 ENROUTE
2026-09-01 20:05:00 264 417 38955 0 -46 ENROUTE
2026-09-01 20:05:30 264 418 38951 0 -46 ENROUTE
2026-09-01 20:06:00 264 419 38953 0 -46 ENROUTE
2026-09-01 20:06:30 264 419 38952 0 -46 ENROUTE
2026-09-01 20:07:00 264 417 38950 0 -46 ENROUTE
2026-09-01 20:07:30 264 417 38954 0 -46 ENROUTE
2026-09-01 20:08:00 264 418 38919 0 -46 ENROUTE
2026-09-01 20:08:30 263 416 38919 0 -46 ENROUTE
2026-09-01 20:09:00 264 418 38920 0 -46 ENROUTE
2026-09-01 20:09:30 264 419 38921 0 -46 ENROUTE
2026-09-01 20:10:00 264 420 38922 0 -46 ENROUTE
2026-09-01 20:10:30 265 419 38919 0 -46 ENROUTE
2026-09-01 20:11:00 262 412 38845 0 -45 ENROUTE
2026-09-01 20:11:30 265 416 38842 0 -45 ENROUTE
2026-09-01 20:12:00 265 416 38847 0 -45 ENROUTE
2026-09-01 20:12:30 263 413 38841 0 -45 ENROUTE
2026-09-01 20:13:00 264 415 38844 0 -45 ENROUTE
2026-09-01 20:13:30 266 417 38800 0 -45 ENROUTE
2026-09-01 20:14:00 263 410 38797 0 -45 ENROUTE
2026-09-01 20:14:30 264 413 38798 0 -45 ENROUTE
2026-09-01 20:15:00 265 415 38801 0 -45 ENROUTE
2026-09-01 20:15:30 264 413 38801 0 -45 ENROUTE
2026-09-01 20:16:00 264 409 38764 0 -45 ENROUTE
2026-09-01 20:16:30 263 409 38711 0 -44 ENROUTE
2026-09-01 20:17:00 265 412 38714 0 -44 ENROUTE
2026-09-01 20:17:30 264 411 38714 0 -44 ENROUTE
2026-09-01 20:18:00 264 410 38710 0 -44 ENROUTE
2026-09-01 20:18:30 265 409 38709 0 -44 ENROUTE
2026-09-01 20:19:00 264 410 38684 0 -44 DESCENT
2026-09-01 20:19:30 265 412 38665 0 -44 ENROUTE
2026-09-01 20:20:00 263 407 38640 0 -44 ENROUTE
2026-09-01 20:20:30 264 407 38636 0 -44 ENROUTE
2026-09-01 20:21:00 265 410 38641 0 -44 ENROUTE
2026-09-01 20:21:30 264 406 38638 0 -44 ENROUTE
2026-09-01 20:22:00 264 409 38576 0 -44 ENROUTE
2026-09-01 20:22:30 265 411 38575 0 -44 ENROUTE
2026-09-01 20:23:00 264 409 38572 0 -44 ENROUTE
2026-09-01 20:23:30 263 408 38570 0 -44 ENROUTE
2026-09-01 20:24:00 264 408 38552 0 -44 ENROUTE
2026-09-01 20:24:30 264 407 38551 0 -44 ENROUTE
2026-09-01 20:25:00 264 411 38497 0 -43 ENROUTE
2026-09-01 20:25:30 265 412 38500 0 -43 ENROUTE
2026-09-01 20:26:00 264 411 38499 0 -43 ENROUTE
2026-09-01 20:26:30 264 410 38498 0 -43 ENROUTE
2026-09-01 20:27:00 264 410 38500 0 -43 ENROUTE
2026-09-01 20:27:30 262 411 38455 0 -43 DESCENT
2026-09-01 20:28:00 265 415 38414 0 -43 ENROUTE
2026-09-01 20:28:30 262 409 38405 0 -43 ENROUTE
2026-09-01 20:29:00 266 415 38410 0 -43 ENROUTE
2026-09-01 20:29:30 264 411 38410 0 -43 ENROUTE
2026-09-01 20:30:00 263 399 38406 0 -43 ENROUTE
2026-09-01 20:30:30 264 405 38380 0 -43 DESCENT
2026-09-01 20:31:00 266 404 38362 0 -43 ENROUTE
2026-09-01 20:31:30 263 399 38343 0 -43 ENROUTE
2026-09-01 20:32:00 264 400 38341 0 -43 ENROUTE
2026-09-01 20:32:30 265 403 38346 0 -43 ENROUTE
2026-09-01 20:33:00 264 401 38347 0 -43 ENROUTE
2026-09-01 20:33:30 264 401 38346 0 -43 ENROUTE
2026-09-01 20:34:00 264 399 38349 0 -43 ENROUTE
2026-09-01 20:34:30 264 399 38357 0 -43 ENROUTE
2026-09-01 20:35:00 264 399 38354 0 -43 ENROUTE
2026-09-01 20:35:30 265 400 38358 0 -43 ENROUTE
2026-09-01 20:36:00 265 400 38360 0 -43 ENROUTE
2026-09-01 20:36:30 265 400 38360 0 -43 ENROUTE
2026-09-01 20:37:00 265 399 38360 0 -43 ENROUTE
2026-09-01 20:37:30 263 395 38350 0 -43 ENROUTE
2026-09-01 20:38:00 265 404 38301 0 -43 ENROUTE
2026-09-01 20:38:30 265 403 38295 0 -43 ENROUTE
2026-09-01 20:39:00 263 401 38291 0 -43 ENROUTE
2026-09-01 20:39:30 264 402 38292 0 -43 ENROUTE
2026-09-01 20:40:00 265 402 38292 0 -43 ENROUTE
2026-09-01 20:40:30 264 397 38287 0 -44 ENROUTE
2026-09-01 20:41:00 264 397 38284 0 -44 ENROUTE
2026-09-01 20:41:30 266 404 38243 0 -44 ENROUTE
2026-09-01 20:42:00 264 401 38239 0 -44 ENROUTE
2026-09-01 20:42:30 263 401 38236 0 -44 ENROUTE
2026-09-01 20:43:00 265 403 38239 0 -44 ENROUTE
2026-09-01 20:43:30 265 400 38245 0 -44 ENROUTE
2026-09-01 20:44:00 262 396 38242 0 -44 ENROUTE
2026-09-01 20:44:30 264 400 38243 0 -44 ENROUTE
2026-09-01 20:45:00 265 405 38197 0 -44 ENROUTE
2026-09-01 20:45:30 264 402 38196 0 -44 ENROUTE
2026-09-01 20:46:00 264 401 38193 0 -44 ENROUTE
2026-09-01 20:46:30 264 403 38193 0 -44 ENROUTE
2026-09-01 20:47:00 265 403 38196 0 -44 ENROUTE
2026-09-01 20:47:30 264 402 38196 0 -44 ENROUTE
2026-09-01 20:48:00 263 403 38146 0 -44 ENROUTE
2026-09-01 20:48:30 266 408 38148 0 -44 ENROUTE
2026-09-01 20:49:00 264 405 38147 0 -44 ENROUTE
2026-09-01 20:49:30 264 404 38145 0 -44 ENROUTE
2026-09-01 20:50:00 265 404 38148 0 -44 ENROUTE
2026-09-01 20:50:30 262 397 38141 0 -44 ENROUTE
2026-09-01 20:51:00 266 403 38153 0 -44 ENROUTE
2026-09-01 20:51:30 263 403 38113 0 -44 ENROUTE
2026-09-01 20:52:00 265 405 38116 0 -44 ENROUTE
2026-09-01 20:52:30 264 404 38116 0 -44 ENROUTE
2026-09-01 20:53:00 266 404 38106 0 -44 ENROUTE
2026-09-01 20:53:30 261 397 38094 0 -44 ENROUTE
2026-09-01 20:54:00 265 401 38108 0 -44 ENROUTE
2026-09-01 20:54:30 263 396 38094 0 -44 ENROUTE
2026-09-01 20:55:00 264 403 38087 0 -45 DESCENT
2026-09-01 20:55:30 265 404 38080 0 -45 ENROUTE
2026-09-01 20:56:00 264 400 38075 0 -45 ENROUTE
2026-09-01 20:56:30 263 395 38075 0 -45 ENROUTE
2026-09-01 20:57:00 265 400 38087 0 -45 ENROUTE
2026-09-01 20:57:30 265 399 38083 0 -45 ENROUTE
2026-09-01 20:58:00 263 397 38080 0 -45 ENROUTE
2026-09-01 20:58:30 264 398 38080 0 -45 ENROUTE
2026-09-01 20:59:00 266 403 38045 0 -45 ENROUTE
2026-09-01 20:59:30 263 395 38043 0 -45 ENROUTE
2026-09-01 21:00:00 265 399 38044 0 -45 ENROUTE
2026-09-01 21:00:30 265 398 38047 0 -45 ENROUTE
2026-09-01 21:01:00 263 392 38060 0 -45 ENROUTE
2026-09-01 21:01:30 265 395 38048 0 -45 ENROUTE
2026-09-01 21:02:00 265 394 38050 0 -45 ENROUTE
2026-09-01 21:02:30 263 389 38047 0 -45 ENROUTE
2026-09-01 21:03:00 264 393 38015 0 -45 ENROUTE
2026-09-01 21:03:30 265 395 38023 0 -45 ENROUTE
2026-09-01 21:04:00 264 394 38024 0 -45 ENROUTE
2026-09-01 21:04:30 264 392 38022 0 -45 ENROUTE
2026-09-01 21:05:00 263 389 38021 0 -45 ENROUTE
2026-09-01 21:05:30 264 390 38019 0 -45 ENROUTE
2026-09-01 21:06:00 265 392 38023 0 -45 ENROUTE
2026-09-01 21:06:30 264 390 38023 0 -45 ENROUTE
2026-09-01 21:07:00 263 389 38020 0 -45 ENROUTE
2026-09-01 21:07:30 264 385 38021 0 -46 ENROUTE
2026-09-01 21:08:00 263 384 38018 0 -46 ENROUTE
2026-09-01 21:08:30 265 390 37983 0 -46 ENROUTE
2026-09-01 21:09:00 265 390 37987 0 -46 ENROUTE
2026-09-01 21:09:30 263 387 37983 0 -46 ENROUTE
2026-09-01 21:10:00 265 386 37986 0 -46 ENROUTE
2026-09-01 21:10:30 263 382 37984 0 -46 ENROUTE
2026-09-01 21:11:00 264 384 37983 0 -46 ENROUTE
2026-09-01 21:11:30 265 386 37988 0 -46 ENROUTE
2026-09-01 21:12:00 264 384 37987 0 -46 ENROUTE
2026-09-01 21:12:30 265 383 37986 0 -46 ENROUTE
2026-09-01 21:13:00 263 378 37990 0 -46 ENROUTE
2026-09-01 21:13:30 264 380 37989 0 -46 ENROUTE
2026-09-01 21:14:00 265 382 38011 0 -46 ENROUTE
2026-09-01 21:14:30 264 381 37997 0 -46 ENROUTE
2026-09-01 21:15:00 263 379 37999 0 -46 ENROUTE
2026-09-01 21:15:30 264 379 37998 0 -46 ENROUTE
2026-09-01 21:16:00 264 380 38000 0 -46 ENROUTE
2026-09-01 21:16:30 264 380 38001 0 -46 ENROUTE
2026-09-01 21:17:00 265 381 38004 0 -46 ENROUTE
2026-09-01 21:17:30 266 380 38006 0 -47 ENROUTE
2026-09-01 21:18:00 262 372 38000 0 -47 ENROUTE
2026-09-01 21:18:30 265 377 38006 0 -47 ENROUTE
2026-09-01 21:19:00 265 376 38010 0 -47 ENROUTE
2026-09-01 21:19:30 263 374 38006 0 -47 ENROUTE
2026-09-01 21:20:00 266 375 38018 0 -47 ENROUTE
2026-09-01 21:20:30 263 369 38022 0 -47 ENROUTE
2026-09-01 21:21:00 264 372 38023 0 -47 ENROUTE
2026-09-01 21:21:30 265 373 38026 0 -47 ENROUTE
2026-09-01 21:22:00 264 371 38025 0 -47 ENROUTE
2026-09-01 21:22:30 266 374 37995 0 -47 ENROUTE
2026-09-01 21:23:00 263 369 37996 0 -47 ENROUTE
2026-09-01 21:23:30 264 370 37994 0 -47 ENROUTE
2026-09-01 21:24:00 265 372 37998 0 -47 ENROUTE
2026-09-01 21:24:30 264 371 37998 0 -47 ENROUTE
2026-09-01 21:25:00 265 369 38005 0 -47 ENROUTE
2026-09-01 21:25:30 264 367 38006 0 -47 ENROUTE
2026-09-01 21:26:00 264 367 38004 0 -47 ENROUTE
2026-09-01 21:26:30 264 366 38039 0 -47 ENROUTE
2026-09-01 21:27:00 265 369 38021 0 -47 ENROUTE
2026-09-01 21:27:30 264 367 38019 0 -47 ENROUTE
2026-09-01 21:28:00 264 365 38022 0 -47 ENROUTE
2026-09-01 21:28:30 263 363 38019 0 -47 ENROUTE
2026-09-01 21:29:00 264 366 38002 0 -47 ENROUTE
2026-09-01 21:29:30 265 367 38003 0 -47 ENROUTE
2026-09-01 21:30:00 264 366 38002 0 -47 ENROUTE
2026-09-01 21:30:30 263 365 37999 0 -47 ENROUTE
2026-09-01 21:31:00 265 365 38000 0 -47 ENROUTE
2026-09-01 21:31:30 263 362 37998 0 -47 ENROUTE
2026-09-01 21:32:00 264 363 37998 0 -47 ENROUTE
2026-09-01 21:32:30 265 364 38001 0 -47 ENROUTE
2026-09-01 21:33:00 265 364 38002 0 -47 ENROUTE
2026-09-01 21:33:30 264 363 38002 0 -47 ENROUTE
2026-09-01 21:34:00 264 365 37969 0 -47 ENROUTE
2026-09-01 21:34:30 264 361 37971 0 -47 ENROUTE
2026-09-01 21:35:00 264 361 37974 0 -47 ENROUTE
2026-09-01 21:35:30 265 363 37978 0 -47 ENROUTE
2026-09-01 21:36:00 264 361 37977 0 -47 ENROUTE
2026-09-01 21:36:30 264 360 37975 0 -47 ENROUTE
2026-09-01 21:37:00 264 361 37974 0 -47 ENROUTE
2026-09-01 21:37:30 265 361 37972 0 -47 ENROUTE
2026-09-01 21:38:00 263 356 37985 0 -48 ENROUTE
2026-09-01 21:38:30 265 361 37952 0 -48 ENROUTE
2026-09-01 21:39:00 265 361 37956 0 -48 ENROUTE
2026-09-01 21:39:30 263 359 37953 0 -48 ENROUTE
2026-09-01 21:40:00 264 360 37952 0 -48 ENROUTE
2026-09-01 21:40:30 265 361 37953 0 -48 ENROUTE
2026-09-01 21:41:00 263 355 37952 0 -48 ENROUTE
2026-09-01 21:41:30 264 357 37952 0 -48 ENROUTE
2026-09-01 21:42:00 265 358 37956 0 -48 ENROUTE
2026-09-01 21:42:30 264 356 37954 0 -48 ENROUTE
2026-09-01 21:43:00 263 357 37912 0 -48 ENROUTE
2026-09-01 21:43:30 270 363 37455 0 -47 DESCENT
2026-09-01 21:44:00 268 355 36756 0 -46 DESCENT
2026-09-01 21:44:30 275 362 36072 0 -45 DESCENT
2026-09-01 21:45:00 278 362 35395 0 -44 DESCENT
2026-09-01 21:45:30 282 364 34715 0 -43 DESCENT
2026-09-01 21:46:00 285 366 34037 0 -42 DESCENT
2026-09-01 21:46:30 289 369 33362 0 -42 DESCENT
2026-09-01 21:47:00 296 378 32686 0 -42 DESCENT
2026-09-01 21:47:30 298 383 32009 0 -43 DESCENT
2026-09-01 21:48:00 305 397 31333 0 -43 DESCENT
2026-09-01 21:48:30 307 401 30651 0 -44 DESCENT
2026-09-01 21:49:00 310 406 29972 0 -44 DESCENT
2026-09-01 21:49:30 309 404 29278 0 -43 DESCENT
2026-09-01 21:50:00 310 400 28586 0 -42 DESCENT
2026-09-01 21:50:30 309 395 27890 0 -40 DESCENT
2026-09-01 21:51:00 309 394 27194 0 -39 DESCENT
2026-09-01 21:51:30 310 392 26496 0 -38 DESCENT
2026-09-01 21:52:00 310 390 25800 0 -36 DESCENT
2026-09-01 21:52:30 310 389 25103 0 -35 DESCENT
2026-09-01 21:53:00 310 385 24405 0 -33 DESCENT
2026-09-01 21:53:30 298 368 23695 0 -32 DESCENT
2026-09-01 21:54:00 289 353 22976 0 -30 DESCENT
2026-09-01 21:54:30 278 337 22353 0 -29 DESCENT
2026-09-01 21:55:00 267 321 21817 0 -28 DESCENT
2026-09-01 21:55:30 257 308 21279 0 -27 DESCENT
2026-09-01 21:56:00 248 296 20739 0 -25 DESCENT
2026-09-01 21:56:30 241 285 20200 0 -24 DESCENT
2026-09-01 21:57:00 234 275 19661 0 -23 DESCENT
2026-09-01 21:57:30 229 268 19125 0 -22 DESCENT
2026-09-01 21:58:00 230 270 18607 0 -21 DESCENT
2026-09-01 21:58:30 230 270 18098 0 -20 DESCENT
2026-09-01 21:59:00 230 267 17595 0 -18 DESCENT
2026-09-01 21:59:30 229 265 17091 0 -17 DESCENT
2026-09-01 22:00:00 230 264 16588 0 -16 DESCENT
2026-09-01 22:00:30 229 262 16089 0 -15 DESCENT
2026-09-01 22:01:00 231 277 15626 0 -14 DESCENT
2026-09-01 22:01:30 229 272 15139 0 -13 DESCENT
2026-09-01 22:02:00 229 271 14648 0 -12 DESCENT
2026-09-01 22:02:30 229 269 14150 0 -11 DESCENT
2026-09-01 22:03:00 229 268 13651 0 -10 DESCENT
2026-09-01 22:03:30 229 266 13152 0 -9 DESCENT
2026-09-01 22:04:00 229 265 12653 0 -8 DESCENT
2026-09-01 22:04:30 229 263 12153 0 -7 DESCENT
2026-09-01 22:05:00 229 262 11653 0 -6 DESCENT
2026-09-01 22:05:30 229 261 11156 0 -5 DESCENT
2026-09-01 22:06:00 229 260 10654 0 -4 DESCENT
2026-09-01 22:06:30 229 259 10156 0 -3 DESCENT
2026-09-01 22:07:00 232 262 10051 0 -3 ENROUTE
2026-09-01 22:07:30 230 260 10052 0 -3 ENROUTE
2026-09-01 22:08:00 229 259 10051 0 -3 ENROUTE
2026-09-01 22:08:30 230 260 10054 0 -3 ENROUTE
2026-09-01 22:09:00 230 260 10054 0 -3 ENROUTE
2026-09-01 22:09:30 230 260 10049 0 -3 ENROUTE
2026-09-01 22:10:00 230 260 10049 0 -3 ENROUTE
2026-09-01 22:10:30 230 260 10049 0 -3 ENROUTE
2026-09-01 22:11:00 230 260 10049 0 -3 ENROUTE
2026-09-01 22:11:30 229 260 10048 0 -3 ENROUTE
2026-09-01 22:12:00 229 260 10047 0 -3 ENROUTE
2026-09-01 22:12:30 228 257 9721 0 -2 DESCENT
2026-09-01 22:13:00 228 255 9211 0 -1 DESCENT
2026-09-01 22:13:30 227 252 8706 0 0 DESCENT
2026-09-01 22:14:00 228 251 8203 0 1 DESCENT
2026-09-01 22:14:30 228 248 7702 0 2 DESCENT
2026-09-01 22:15:00 228 247 7202 0 3 DESCENT
2026-09-01 22:15:30 228 244 6702 0 4 DESCENT
2026-09-01 22:16:00 227 242 6200 0 5 DESCENT
2026-09-01 22:16:30 227 240 5701 0 6 DESCENT
2026-09-01 22:17:00 227 239 5199 0 7 DESCENT
2026-09-01 22:17:30 228 238 4701 0 8 DESCENT
2026-09-01 22:18:00 228 238 4203 0 9 DESCENT
2026-09-01 22:18:30 229 240 4104 0 9 ENROUTE
2026-09-01 22:19:00 208 223 4102 0 9 ENROUTE
2026-09-01 22:19:30 186 205 4078 0 9 ENROUTE
2026-09-01 22:20:00 189 209 4102 0 9 ENROUTE
2026-09-01 22:20:30 167 185 4093 0 9 ENROUTE
2026-09-01 22:21:00 167 186 4080 0 9 ENROUTE
2026-09-01 22:21:30 166 186 4084 0 9 ENROUTE
2026-09-01 22:22:00 163 183 4086 0 9 ENROUTE
2026-09-01 22:22:30 162 182 4086 0 9 ENROUTE
2026-09-01 22:23:00 162 181 4086 0 9 ENROUTE
2026-09-01 22:23:30 161 179 4084 0 9 ENROUTE
2026-09-01 22:24:00 162 180 4084 0 9 ENROUTE
2026-09-01 22:24:30 162 180 4084 0 9 ENROUTE
2026-09-01 22:25:00 162 182 4084 0 9 ENROUTE
2026-09-01 22:25:30 161 181 4086 0 9 ENROUTE
2026-09-01 22:26:00 161 181 4085 0 9 ENROUTE
2026-09-01 22:26:30 163 182 4091 0 9 ENROUTE
2026-09-01 22:27:00 162 178 4095 0 9 ENROUTE
2026-09-01 22:27:30 161 177 4099 0 9 ENROUTE
2026-09-01 22:28:00 161 180 4098 0 9 ENROUTE
2026-09-01 22:28:30 161 180 4101 0 9 ENROUTE
2026-09-01 22:29:00 160 177 4111 0 9 ENROUTE
2026-09-01 22:29:30 162 181 4240 0 9 ENROUTE
2026-09-01 22:30:00 162 181 4327 0 9 ENROUTE
2026-09-01 22:30:30 162 182 4335 0 9 ENROUTE
2026-09-01 22:31:00 162 179 4247 0 9 ENROUTE
2026-09-01 22:31:30 160 176 4201 0 9 ENROUTE
2026-09-01 22:32:00 162 176 4209 0 9 ENROUTE
2026-09-01 22:32:30 161 178 4278 0 9 ENROUTE
2026-09-01 22:33:00 161 177 4205 0 9 DESCENT
2026-09-01 22:33:30 162 182 3895 0 9 DESCENT
2026-09-01 22:34:00 160 177 3559 0 10 DESCENT
2026-09-01 22:34:30 164 179 3139 0 10 DESCENT
2026-09-01 22:35:00 159 169 2353 0 11 APPROACH
2026-09-01 22:35:30 162 170 1725 0 12 APPROACH
2026-09-01 22:36:00 162 167 1130 0 13 APPROACH
2026-09-01 22:36:30 166 172 641 0 15 ON FINAL
2026-09-01 22:37:00 173 178 165 0 15 ON FINAL
2026-09-01 22:37:30 71 75 88 0 15 ON FINAL
2026-09-01 22:38:00 10 15 84 0 15 TAXI TO APRON
2026-09-01 22:38:30 13 16 84 0 15 TAXI TO APRON
2026-09-01 22:39:00 23 16 81 0 15 TAXI TO APRON
2026-09-01 22:39:30 19 15 81 0 15 TAXI TO APRON
2026-09-01 22:40:00 20 16 81 0 15 TAXI TO APRON
2026-09-01 22:40:30 17 12 81 0 15 TAXI TO APRON
  • Join our VA!

    It has been 11 years of great learning, friendships, and stories.

  • Sign up now!